Página principal
METAR-TAF:

METAR-TAF

Aeroportos :

Aeroporto Internacional Robert L. Bradshaw

Basseterre, São Cristóvão e Nevis

latitude: 17-18N, longitude: 062-41W, altura: 48 m

Observação actual do tempo

O boletim foi feito há 38 minutos, às 10:00 UTC
Vento 7 kt de es-nordeste
Temperatura 26°C
Humidade 89%
Pressão 1015 hPa
Visibilidade 10 km ou mais
Nuvens dispersasa uma altura de 1000 ft
Nuvens dispersasa uma altura de 3500 ft
aguaceiros nas vizinhanças

METAR: TKPK 191000Z 06007KT 9999 VCSH SCT010 SCT035 26/24 Q1015

Hora: 06:38 (10:38 UTC)

Previsão

O boletim foi feito há 11 horas e 38 minutos, às 23:00 UTC
Previsão válida de 19 às 00 UTC a 19 às 24 UTC
Vento 13 kt de este
Visibilidade 10 km ou mais
Nuvens dispersasa uma altura de 1700 ft
Probabilidade 40% :
Temporariamente
de 19 às 02 UTC a 19 às 15 UTC
Visibilidade: 4800 m
Poucas nuvensa uma altura de 1200 ft, Cumulonimbus.
aguaceiros de chuva

TAF: TKPK 182300Z 1900/1924 09013KT 9999 SCT017 PROB40 TEMPO 1902/1915 4800 SHRA FEW012CB

Observações e previsões do tempo de mais de 4000 aeroportos (mensagens METAR e TAF).

As estações disponíveis são os pontos amarelos e vermelhos sobre o mapa.

Mova o rato sobre o mapa para ver o nome da estação.

Depois clique no ponto para visualizar as observações e previsões meteorológicas.

Para alterar o mapa : clique nos botões verdes com uma cruz preta para aumentar o zoom; no botão verde com uma pitada de zoom; ou nas setas verdes para mapas adjacentes.


METAR-TAF: